Time;durP1;ratioP1;P1;durP2;ratioP2;P2;SDS_P1;SDS_P2;PMS_P1;PMS_P2;Temp;Humidity;BMP_temperature;BMP_pressure;BME280_temperature;BME280_humidity;BME280_pressure;Samples;Min_cycle;Max_cycle;Signal;HPM_P1;HPM_P2
2022/08/15 00:00:13;;;;;;;;;;;;;;;21.89;45.30;95916.59;30001;970;1909;-68
2022/08/15 00:00:44;;;;;;;;;;;;;;;21.89;45.57;95917.41;30001;982;1881;-67
2022/08/15 00:01:17;;;;;;;;;;;;;;;21.89;45.64;95920.16;30001;983;1885;-66
2022/08/15 00:01:48;;;;;;;;;;;;;;;21.87;45.60;95911.47;30001;983;1880;-67
2022/08/15 00:02:19;;;;;;;;;;;;;;;21.87;45.38;95913.44;30001;983;1863;-65
2022/08/15 00:02:50;;;;;;;;;;;;;;;21.86;45.89;95915.41;30002;785;1013;-67
2022/08/15 00:03:24;;;;;;;;;;;;;;;21.87;45.69;95914.22;30001;986;1885;-66
2022/08/15 00:03:57;;;;;;;;;;;;;;;21.88;45.50;95915.81;30001;983;1881;-65
2022/08/15 00:04:28;;;;;;;;;;;;;;;21.91;45.24;95909.50;30001;983;1835;-65
2022/08/15 00:05:01;;;;;;;;;;;;;;;21.92;45.40;95911.09;30001;983;1881;-64
2022/08/15 00:05:33;;;;;;;;;;;;;;;21.95;45.31;95904.78;30001;983;1885;-67
2022/08/15 00:06:07;;;;;;;;;;;;;;;21.97;45.12;95904.41;30001;983;1881;-67
2022/08/15 00:06:41;;;;;;;;;;;;;;;22.00;45.42;95909.16;30001;982;1885;-68
2022/08/15 00:07:13;;;;;;;;;;;;;;;21.98;45.05;95903.22;30001;982;1881;-68
2022/08/15 00:07:43;;;;;;;;;;;;;;;21.96;45.42;95909.13;30001;982;1886;-66
2022/08/15 00:08:17;;;;;;;;;;;;;;;21.94;45.50;95908.75;30001;982;1859;-67
2022/08/15 00:08:55;;;;;;;;;;;;;;;21.91;45.40;95909.50;30001;983;1858;-66
2022/08/15 00:09:26;;;;;;;;;;;;;;;21.89;45.40;95908.31;30001;983;1880;-68
2022/08/15 00:09:56;;;;;;;;;;;;;;;21.88;45.36;95907.53;30001;983;1885;-67
2022/08/15 00:10:27;;;;;;;;;;;;;;;21.86;45.39;95904.38;30001;983;1881;-67
2022/08/15 00:11:00;;;;;;;;;;;;;;;21.90;45.69;95909.91;30001;983;1885;-65
2022/08/15 00:11:34;;;;;;;;;;;;;;;21.95;45.82;95910.31;30001;983;1881;-65
2022/08/15 00:12:05;;;;;;;;;;;;;;;21.94;45.65;95905.19;30001;983;1885;-66
2022/08/15 00:12:37;;;;;;;;;;;;;;;21.91;46.18;95905.97;30001;983;1859;-67
2022/08/15 00:13:12;;;;;;;;;;;;;;;21.87;45.66;95900.44;30001;982;1881;-67
2022/08/15 00:13:45;;;;;;;;;;;;;;;21.85;45.66;95905.53;30001;982;1859;-68
2022/08/15 00:14:19;;;;;;;;;;;;;;;21.83;46.30;95899.63;30001;982;1881;-68
2022/08/15 00:14:50;;;;;;;;;;;;;;;21.81;46.14;95902.00;30001;982;1881;-66
2022/08/15 00:15:21;;;;;;;;;;;;;;;21.79;46.19;95898.84;30001;982;1886;-67
2022/08/15 00:15:54;;;;;;;;;;;;;;;21.79;46.64;95904.38;30001;982;1881;-66
2022/08/15 00:16:25;;;;;;;;;;;;;;;21.78;46.32;95900.03;30001;983;1885;-66
2022/08/15 00:16:59;;;;;;;;;;;;;;;21.77;47.04;95900.41;30001;983;1859;-65
2022/08/15 00:17:30;;;;;;;;;;;;;;;21.76;46.24;95896.06;30001;974;1900;-65
2022/08/15 00:18:02;;;;;;;;;;;;;;;21.75;46.81;95906.31;30001;983;1881;-65
2022/08/15 00:18:33;;;;;;;;;;;;;;;21.73;47.50;95915.00;30001;983;1885;-66
2022/08/15 00:19:15;;;;;;;;;;;;;;;21.71;47.11;95906.31;30001;983;1859;-66
2022/08/15 00:19:47;;;;;;;;;;;;;;;21.68;48.27;95909.84;30001;983;1881;-66
2022/08/15 00:20:18;;;;;;;;;;;;;;;21.60;49.62;95913.75;30001;983;1881;-66
2022/08/15 00:20:49;;;;;;;;;;;;;;;21.60;48.65;95907.44;30001;982;1885;-66
2022/08/15 00:21:21;;;;;;;;;;;;;;;21.58;49.35;95909.78;30001;982;1859;-66
2022/08/15 00:21:54;;;;;;;;;;;;;;;21.56;48.27;95901.09;30001;982;1881;-66
2022/08/15 00:22:25;;;;;;;;;;;;;;;21.54;48.15;95903.44;30001;982;1881;-66
2022/08/15 00:22:56;;;;;;;;;;;;;;;21.53;49.92;95910.16;30001;982;1886;-66
2022/08/15 00:23:27;;;;;;;;;;;;;;;21.49;48.74;95898.31;30001;982;1881;-65
2022/08/15 00:23:58;;;;;;;;;;;;;;;21.48;48.61;95900.31;30001;983;1885;-65
2022/08/15 00:24:34;;;;;;;;;;;;;;;21.47;48.42;95903.44;30001;983;1880;-65
2022/08/15 00:25:05;;;;;;;;;;;;;;;21.45;48.21;95908.56;30001;983;1885;-66
2022/08/15 00:25:37;;;;;;;;;;;;;;;21.44;48.58;95910.53;30001;983;1880;-68
2022/08/15 00:26:09;;;;;;;;;;;;;;;21.46;48.60;95916.44;30001;983;1863;-65
2022/08/15 00:26:41;;;;;;;;;;;;;;;21.46;48.68;95907.37;30001;983;1876;-65
2022/08/15 00:27:12;;;;;;;;;;;;;;;21.44;48.62;95902.25;30001;983;1885;-65
2022/08/15 00:27:43;;;;;;;;;;;;;;;21.42;48.45;95907.34;30001;983;1881;-66
2022/08/15 00:28:14;;;;;;;;;;;;;;;21.42;48.55;95914.84;30001;982;1885;-66
2022/08/15 00:28:45;;;;;;;;;;;;;;;21.39;51.40;95932.97;30001;982;1881;-66
2022/08/15 00:29:17;;;;;;;;;;;;;;;21.37;49.59;95927.03;30001;982;1885;-65
2022/08/15 00:29:51;;;;;;;;;;;;;;;21.35;49.81;95938.47;30001;982;1859;-66
2022/08/15 00:30:22;;;;;;;;;;;;;;;21.33;49.42;95937.25;30001;982;1881;-65
2022/08/15 00:30:53;;;;;;;;;;;;;;;21.33;50.00;95949.09;30001;982;1881;-66
2022/08/15 00:31:24;;;;;;;;;;;;;;;21.31;49.71;95929.38;30001;983;1885;-66
2022/08/15 00:31:56;;;;;;;;;;;;;;;21.32;49.63;95933.72;30001;983;1880;-66
2022/08/15 00:32:27;;;;;;;;;;;;;;;21.31;50.10;95940.41;30001;983;1885;-67
2022/08/15 00:32:58;;;;;;;;;;;;;;;21.30;49.51;95938.81;30001;983;1881;-65
2022/08/15 00:33:30;;;;;;;;;;;;;;;21.30;49.34;95932.50;30001;983;1885;-65
2022/08/15 00:34:02;;;;;;;;;;;;;;;21.33;49.89;95938.06;30001;983;1859;-66
2022/08/15 00:34:33;;;;;;;;;;;;;;;21.38;49.32;95934.94;30001;983;1881;-67
2022/08/15 00:35:35;;;;;;;;;;;;;;;21.40;48.93;95927.06;30001;983;1881;-66
2022/08/15 00:35:56;;;;;;;;;;;;;;;21.39;48.91;95939.28;30002;776;1014;-66
2022/08/15 00:36:30;;;;;;;;;;;;;;;21.38;49.11;95939.66;30001;982;1877;-65
2022/08/15 00:37:02;;;;;;;;;;;;;;;21.35;48.74;95930.19;30001;982;1885;-66
2022/08/15 00:37:33;;;;;;;;;;;;;;;21.33;48.89;95937.25;30001;982;1881;-67
2022/08/15 00:38:05;;;;;;;;;;;;;;;21.31;49.05;95936.84;30001;982;1886;-68
2022/08/15 00:38:35;;;;;;;;;;;;;;;21.31;49.20;95939.63;30001;982;1881;-67
2022/08/15 00:39:07;;;;;;;;;;;;;;;21.34;49.56;95942.41;30001;983;1885;-67
2022/08/15 00:39:38;;;;;;;;;;;;;;;21.33;50.64;95949.09;30001;983;1880;-65
2022/08/15 00:40:10;;;;;;;;;;;;;;;21.29;50.93;95953.00;30001;983;1885;-65
2022/08/15 00:41:41;;;;;;;;;;;;;;;21.20;49.71;95941.47;30001;983;1863;-65
2022/08/15 00:42:12;;;;;;;;;;;;;;;21.19;49.86;95942.66;30001;983;1876;-66
2022/08/15 00:42:43;;;;;;;;;;;;;;;21.18;50.46;95946.59;30001;983;1885;-66
2022/08/15 00:43:15;;;;;;;;;;;;;;;21.15;49.94;95945.38;30001;982;1881;-66
2022/08/15 00:43:50;;;;;;;;;;;;;;;21.14;49.83;95946.56;30001;982;1885;-66
2022/08/15 00:44:26;;;;;;;;;;;;;;;21.11;49.97;95944.59;30001;982;1881;-55
2022/08/15 00:44:58;;;;;;;;;;;;;;;21.12;50.04;95943.41;30001;982;1886;-67
2022/08/15 00:45:29;;;;;;;;;;;;;;;21.14;50.28;95948.56;30001;982;1881;-66
2022/08/15 00:46:00;;;;;;;;;;;;;;;21.18;50.44;95946.59;30001;983;1884;-65
2022/08/15 00:46:31;;;;;;;;;;;;;;;21.18;50.23;95950.12;30001;983;1880;-65
2022/08/15 00:47:05;;;;;;;;;;;;;;;21.19;50.37;95948.97;30001;983;1863;-67
2022/08/15 00:47:36;;;;;;;;;;;;;;;21.27;50.69;95939.59;30001;983;1876;-66
2022/08/15 00:48:55;;;;;;;;;;;;;;;21.27;50.27;95933.28;30001;983;1881;-66
2022/08/15 00:49:28;;;;;;;;;;;;;;;21.25;50.07;95936.41;30001;983;1885;-67
2022/08/15 00:49:59;;;;;;;;;;;;;;;21.20;49.90;95934.00;30001;983;1881;-66
2022/08/15 00:50:31;;;;;;;;;;;;;;;21.17;50.62;95940.28;30001;983;1885;-66
2022/08/15 00:51:03;;;;;;;;;;;;;;;21.15;50.64;95941.81;30001;982;1881;-68
2022/08/15 00:51:43;;;;;;;;;;;;;;;21.10;50.32;95934.72;30001;982;1885;-67
2022/08/15 00:52:16;;;;;;;;;;;;;;;21.08;50.22;95931.56;30001;982;1859;-67
2022/08/15 00:52:47;;;;;;;;;;;;;;;21.07;50.30;95932.75;30001;982;1881;-68
2022/08/15 00:53:18;;;;;;;;;;;;;;;21.06;50.17;95933.91;30001;983;1880;-67
2022/08/15 00:53:52;;;;;;;;;;;;;;;21.06;50.28;95940.22;30001;983;1885;-67
2022/08/15 00:54:42;;;;;;;;;;;;;;;21.05;51.50;95937.84;30001;983;1880;-68
2022/08/15 00:55:16;;;;;;;;;;;;;;;21.03;50.58;95940.19;30001;983;1854;-68
2022/08/15 00:55:48;;;;;;;;;;;;;;;21.02;50.93;95938.63;30001;983;1850;-67
2022/08/15 00:56:19;;;;;;;;;;;;;;;21.02;50.34;95933.09;30001;983;1881;-66
2022/08/15 00:56:53;;;;;;;;;;;;;;;21.01;50.36;95937.81;30001;983;1876;-66
2022/08/15 00:57:29;;;;;;;;;;;;;;;21.01;50.73;95940.56;30001;983;1881;-68
2022/08/15 00:58:01;;;;;;;;;;;;;;;21.04;51.03;95947.28;30001;983;1855;-67
2022/08/15 00:58:33;;;;;;;;;;;;;;;21.05;50.81;95937.84;30001;982;1855;-66
2022/08/15 00:59:05;;;;;;;;;;;;;;;21.05;50.70;95944.16;30001;982;1877;-66
2022/08/15 00:59:38;;;;;;;;;;;;;;;21.06;50.83;95939.44;30001;982;1881;-68
2022/08/15 01:00:16;;;;;;;;;;;;;;;21.04;50.79;95933.50;30001;968;1902;-67
2022/08/15 01:00:49;;;;;;;;;;;;;;;21.06;50.60;95939.44;30001;983;1880;-68
2022/08/15 01:01:21;;;;;;;;;;;;;;;21.06;50.84;95936.66;30001;983;1876;-67
2022/08/15 01:01:53;;;;;;;;;;;;;;;21.09;50.68;95933.16;30001;983;1880;-68
2022/08/15 01:02:27;;;;;;;;;;;;;;;21.13;50.79;95939.47;30001;983;1854;-68
2022/08/15 01:03:00;;;;;;;;;;;;;;;21.13;50.39;95925.69;30001;983;1854;-67
2022/08/15 01:03:33;;;;;;;;;;;;;;;21.13;50.55;95936.72;30001;983;1876;-66
2022/08/15 01:04:07;;;;;;;;;;;;;;;21.12;50.20;95937.09;30001;983;1859;-67
2022/08/15 01:04:38;;;;;;;;;;;;;;;21.10;50.83;95936.69;30001;983;1872;-67
2022/08/15 01:05:10;;;;;;;;;;;;;;;21.09;51.24;95938.66;30001;981;1881;-66
2022/08/15 01:05:43;;;;;;;;;;;;;;;21.06;51.17;95939.44;30001;982;1877;-67
2022/08/15 01:06:15;;;;;;;;;;;;;;;21.05;50.89;95929.56;30001;982;1881;-67
2022/08/15 01:06:46;;;;;;;;;;;;;;;21.03;52.27;95934.69;30001;982;1877;-67
2022/08/15 01:07:18;;;;;;;;;;;;;;;21.02;51.48;95930.34;30001;982;1881;-66
2022/08/15 01:07:49;;;;;;;;;;;;;;;21.01;51.23;95931.50;30001;982;1877;-66
2022/08/15 01:08:22;;;;;;;;;;;;;;;21.00;51.45;95935.44;30001;983;1880;-67
2022/08/15 01:08:54;;;;;;;;;;;;;;;20.99;52.20;95931.09;30001;983;1854;-66
2022/08/15 01:09:27;;;;;;;;;;;;;;;20.97;51.56;95925.19;30001;983;1876;-67
2022/08/15 01:10:01;;;;;;;;;;;;;;;20.96;51.77;95934.62;30001;983;1876;-67
2022/08/15 01:10:35;;;;;;;;;;;;;;;20.97;51.89;95930.69;30001;983;1881;-67
2022/08/15 01:11:13;;;;;;;;;;;;;;;20.95;51.83;95928.31;30001;983;1876;-66
2022/08/15 01:11:47;;;;;;;;;;;;;;;20.94;52.72;95932.25;30001;983;1881;-66
2022/08/15 01:12:21;;;;;;;;;;;;;;;20.93;54.80;95943.66;30001;983;1877;-67
2022/08/15 01:12:52;;;;;;;;;;;;;;;20.90;53.21;95936.94;30001;983;1881;-67
2022/08/15 01:13:22;;;;;;;;;;;;;;;20.90;53.12;95933.38;30001;982;1855;-67
2022/08/15 01:13:55;;;;;;;;;;;;;;;20.88;52.85;95931.00;30001;982;1877;-67
2022/08/15 01:14:26;;;;;;;;;;;;;;;20.87;53.96;95945.19;30001;982;1877;-67
2022/08/15 01:14:59;;;;;;;;;;;;;;;20.85;53.12;95944.78;30001;982;1881;-65
2022/08/15 01:15:31;;;;;;;;;;;;;;;20.85;52.63;95939.25;30001;982;1877;-67
2022/08/15 01:16:03;;;;;;;;;;;;;;;20.86;52.30;95935.31;30001;983;1880;-67
2022/08/15 01:16:38;;;;;;;;;;;;;;;20.86;52.69;95932.56;30001;983;1854;-67
2022/08/15 01:17:10;;;;;;;;;;;;;;;20.86;52.05;95935.31;30001;983;1876;-69
2022/08/15 01:17:42;;;;;;;;;;;;;;;20.86;52.27;95935.31;30001;983;1876;-66
2022/08/15 01:18:14;;;;;;;;;;;;;;;20.87;51.90;95931.41;30001;983;1881;-67
2022/08/15 01:18:46;;;;;;;;;;;;;;;20.87;51.95;95943.22;30001;983;1876;-68
2022/08/15 01:19:20;;;;;;;;;;;;;;;20.88;51.65;95932.97;30001;983;1881;-66
2022/08/15 01:19:56;;;;;;;;;;;;;;;20.88;51.69;95944.00;30001;975;1891;-67
2022/08/15 01:20:30;;;;;;;;;;;;;;;20.88;51.68;95944.00;30001;982;1881;-66
2022/08/15 01:21:07;;;;;;;;;;;;;;;20.89;51.68;95942.84;30001;982;1877;-66
2022/08/15 01:21:51;;;;;;;;;;;;;;;20.89;51.84;95942.84;30001;982;1859;-66
2022/08/15 01:22:42;;;;;;;;;;;;;;;20.88;52.05;95947.56;30001;982;1872;-66
2022/08/15 01:23:37;;;;;;;;;;;;;;;20.88;52.21;95942.03;30001;982;1877;-67
2022/08/15 01:24:14;;;;;;;;;;;;;;;20.86;53.20;95951.88;30001;983;1876;-66
2022/08/15 01:25:04;;;;;;;;;;;;;;;20.86;52.44;95941.62;30001;983;1880;-67
2022/08/15 01:25:58;;;;;;;;;;;;;;;20.86;52.32;95940.84;30001;983;1876;-67
2022/08/15 01:26:30;;;;;;;;;;;;;;;20.84;52.55;95938.47;30001;983;1881;-68
2022/08/15 01:27:01;;;;;;;;;;;;;;;20.85;52.42;95950.28;30001;983;1855;-67
2022/08/15 01:27:41;;;;;;;;;;;;;;;20.85;52.30;95939.25;30001;982;1877;-67
2022/08/15 01:28:17;;;;;;;;;;;;;;;20.86;52.39;95941.62;30001;981;1891;-67
2022/08/15 01:28:48;;;;;;;;;;;;;;;20.87;52.07;95931.41;30001;982;1881;-66
2022/08/15 01:29:20;;;;;;;;;;;;;;;20.88;52.22;95932.97;30001;982;1877;-67
2022/08/15 01:29:51;;;;;;;;;;;;;;;20.89;52.05;95935.34;30001;982;1859;-68
2022/08/15 01:30:25;;;;;;;;;;;;;;;20.89;51.90;95935.34;30001;982;1873;-67
2022/08/15 01:30:58;;;;;;;;;;;;;;;20.89;51.91;95932.59;30001;983;1880;-66
2022/08/15 01:31:31;;;;;;;;;;;;;;;20.89;52.13;95937.31;30001;983;1876;-66
2022/08/15 01:32:02;;;;;;;;;;;;;;;20.89;52.03;95934.56;30001;983;1881;-68
2022/08/15 01:32:33;;;;;;;;;;;;;;;20.88;53.71;95944.81;30001;983;1876;-68
2022/08/15 01:33:05;;;;;;;;;;;;;;;20.88;52.55;95932.97;30001;983;1881;-65
2022/08/15 01:33:39;;;;;;;;;;;;;;;20.87;52.49;95939.66;30001;983;1876;-66
2022/08/15 01:34:10;;;;;;;;;;;;;;;20.85;52.65;95940.03;30001;983;1881;-68
2022/08/15 01:34:42;;;;;;;;;;;;;;;20.85;52.58;95933.75;30001;983;1855;-67
2022/08/15 01:35:13;;;;;;;;;;;;;;;20.87;52.69;95942.44;30001;982;1877;-67
2022/08/15 01:35:46;;;;;;;;;;;;;;;20.87;52.47;95936.91;30001;982;1877;-67
2022/08/15 01:36:18;;;;;;;;;;;;;;;20.87;52.08;95937.69;30001;982;1881;-66
2022/08/15 01:36:50;;;;;;;;;;;;;;;20.90;52.20;95947.19;30001;982;1877;-67
2022/08/15 01:37:22;;;;;;;;;;;;;;;20.92;52.27;95929.06;30001;982;1881;-68
2022/08/15 01:37:53;;;;;;;;;;;;;;;20.97;52.11;95944.47;30001;965;1894;-65
2022/08/15 01:38:35;;;;;;;;;;;;;;;21.10;52.60;95940.25;30002;983;1881;-67
2022/08/15 01:39:12;;;;;;;;;;;;;;;21.16;52.18;95940.66;30002;983;1854;-66
2022/08/15 01:39:53;;;;;;;;;;;;;;;21.14;51.95;95935.53;30002;983;1876;-67
2022/08/15 01:40:42;;;;;;;;;;;;;;;21.10;51.84;95939.47;30002;983;1877;-66
2022/08/15 01:41:39;;;;;;;;;;;;;;;21.06;52.08;95936.66;30002;983;1850;-66
2022/08/15 01:42:14;;;;;;;;;;;;;;;21.04;52.06;95939.03;30002;983;1868;-68
2022/08/15 01:42:48;;;;;;;;;;;;;;;21.02;52.02;95938.63;30002;982;1881;-67
2022/08/15 01:43:22;;;;;;;;;;;;;;;20.99;52.26;95939.37;30002;985;1867;-55
2022/08/15 01:44:12;;;;;;;;;;;;;;;20.96;52.27;95940.13;30002;982;1881;-67
2022/08/15 01:44:49;;;;;;;;;;;;;;;20.98;53.14;95940.53;30002;985;1863;-66
2022/08/15 01:45:22;;;;;;;;;;;;;;;20.99;52.86;95936.63;30002;982;1877;-66
2022/08/15 01:45:55;;;;;;;;;;;;;;;21.01;52.52;95939.78;30002;982;1877;-67
2022/08/15 01:46:28;;;;;;;;;;;;;;;21.01;52.51;95943.34;30002;983;1859;-66
2022/08/15 01:47:07;;;;;;;;;;;;;;;21.00;52.48;95940.97;30002;983;1872;-66
2022/08/15 01:47:46;;;;;;;;;;;;;;;20.99;52.81;95942.12;30002;983;1881;-67
2022/08/15 01:48:24;;;;;;;;;;;;;;;21.04;52.77;95947.28;30002;983;1876;-68
2022/08/15 01:49:02;;;;;;;;;;;;;;;21.02;52.87;95942.16;30002;983;1881;-66
2022/08/15 01:49:35;;;;;;;;;;;;;;;20.98;52.74;95949.62;30002;983;1855;-67
2022/08/15 01:50:12;;;;;;;;;;;;;;;20.97;53.43;95953.53;30002;983;1876;-67
2022/08/15 01:50:49;;;;;;;;;;;;;;;20.93;53.07;95961.00;30002;982;1876;-66
2022/08/15 01:51:20;;;;;;;;;;;;;;;20.96;53.50;95956.69;30002;982;1881;-63
2022/08/15 01:51:52;;;;;;;;;;;;;;;20.98;53.23;95959.84;30002;982;1877;-64
2022/08/15 01:52:24;;;;;;;;;;;;;;;21.07;53.66;95954.81;30002;982;1881;-67
2022/08/15 01:53:11;;;;;;;;;;;;;;;21.06;54.36;95958.75;30002;983;1854;-69
2022/08/15 01:54:02;;;;;;;;;;;;;;;20.99;53.47;95950.41;30002;983;1876;-56
2022/08/15 01:54:37;;;;;;;;;;;;;;;20.99;53.67;95950.41;30002;983;1872;-67
2022/08/15 01:55:10;;;;;;;;;;;;;;;21.05;53.77;95962.66;30002;983;1880;-67
2022/08/15 01:55:46;;;;;;;;;;;;;;;21.10;53.73;95954.03;30002;983;1776;-66
2022/08/15 01:56:20;;;;;;;;;;;;;;;21.13;53.85;95961.56;30002;983;1859;-65
2022/08/15 01:56:51;;;;;;;;;;;;;;;21.13;54.04;95966.28;30002;983;1872;-68
2022/08/15 01:57:23;;;;;;;;;;;;;;;21.09;53.94;95955.22;30002;983;1881;-67
2022/08/15 01:57:56;;;;;;;;;;;;;;;21.04;54.91;95958.31;30002;982;1876;-67
2022/08/15 01:58:28;;;;;;;;;;;;;;;21.00;54.32;95952.00;30002;982;1881;-66
2022/08/15 01:59:01;;;;;;;;;;;;;;;20.96;54.03;95953.94;30002;986;1867;-58
2022/08/15 01:59:33;;;;;;;;;;;;;;;20.98;54.56;95954.34;30002;965;1898;-67
2022/08/15 02:00:09;;;;;;;;;;;;;;;20.98;54.45;95949.62;30002;982;1855;-67
2022/08/15 02:00:48;;;;;;;;;;;;;;;20.96;54.41;95953.94;30002;983;1854;-67
2022/08/15 02:01:20;;;;;;;;;;;;;;;20.90;54.94;95949.94;30002;983;1876;-68
2022/08/15 02:01:59;;;;;;;;;;;;;;;20.92;54.91;95962.16;30002;983;1880;-67
2022/08/15 02:02:30;;;;;;;;;;;;;;;20.94;54.95;95959.03;30002;983;1854;-70
2022/08/15 02:03:01;;;;;;;;;;;;;;;20.92;55.29;95953.09;30002;983;1876;-67
2022/08/15 02:03:35;;;;;;;;;;;;;;;20.90;54.88;95947.19;30002;983;1854;-69
2022/08/15 02:04:07;;;;;;;;;;;;;;;20.91;54.71;95948.75;30002;983;1876;-66
2022/08/15 02:04:42;;;;;;;;;;;;;;;20.91;54.85;95954.28;30002;983;1876;-67
2022/08/15 02:05:15;;;;;;;;;;;;;;;20.88;55.24;95949.53;30002;982;1881;-67
2022/08/15 02:05:46;;;;;;;;;;;;;;;20.85;55.69;95953.03;30002;982;1877;-68
2022/08/15 02:06:24;;;;;;;;;;;;;;;20.82;55.16;95948.28;30002;982;1881;-65
2022/08/15 02:07:02;;;;;;;;;;;;;;;20.79;56.47;95947.13;30002;982;1877;-65
2022/08/15 02:07:35;;;;;;;;;;;;;;;20.73;56.70;95943.91;30002;982;1859;-65
2022/08/15 02:08:06;;;;;;;;;;;;;;;20.71;55.80;95940.75;30002;983;1871;-67
2022/08/15 02:08:38;;;;;;;;;;;;;;;20.72;55.59;95942.31;30002;983;1859;-68
2022/08/15 02:09:11;;;;;;;;;;;;;;;20.71;55.52;95937.19;30002;983;1872;-68
2022/08/15 02:09:42;;;;;;;;;;;;;;;20.71;55.80;95951.78;30002;983;1880;-65
2022/08/15 02:10:13;;;;;;;;;;;;;;;20.71;55.62;95939.94;30002;983;1876;-56
2022/08/15 02:10:44;;;;;;;;;;;;;;;20.73;55.92;95943.12;30002;983;1880;-65
2022/08/15 02:11:17;;;;;;;;;;;;;;;20.77;55.57;95940.41;30002;983;1877;-65
2022/08/15 02:11:49;;;;;;;;;;;;;;;20.78;55.91;95936.47;30002;983;1881;-66
2022/08/15 02:12:23;;;;;;;;;;;;;;;20.77;55.54;95940.41;30002;983;1877;-56
2022/08/15 02:12:54;;;;;;;;;;;;;;;20.76;55.44;95941.56;30002;982;1881;-67
2022/08/15 02:13:24;;;;;;;;;;;;;;;20.83;55.59;95947.13;30002;982;1877;-66
2022/08/15 02:13:56;;;;;;;;;;;;;;;20.84;55.48;95943.19;30002;982;1859;-70
2022/08/15 02:14:27;;;;;;;;;;;;;;;20.84;55.59;95943.19;30002;982;1872;-68
2022/08/15 02:15:00;;;;;;;;;;;;;;;20.85;55.63;95944.78;30002;982;1882;-68
2022/08/15 02:15:31;;;;;;;;;;;;;;;20.82;55.47;95934.50;30002;983;1876;-68
2022/08/15 02:16:02;;;;;;;;;;;;;;;20.79;56.59;95946.31;30002;983;1880;-66
2022/08/15 02:16:36;;;;;;;;;;;;;;;20.74;55.94;95948.25;30002;983;1876;-67
2022/08/15 02:17:08;;;;;;;;;;;;;;;20.72;56.25;95947.84;30002;983;1881;-66
2022/08/15 02:17:40;;;;;;;;;;;;;;;20.72;55.93;95945.09;30002;983;1876;-73
2022/08/15 02:18:11;;;;;;;;;;;;;;;20.80;56.01;95947.88;30002;983;1881;-67
2022/08/15 02:18:43;;;;;;;;;;;;;;;20.80;55.77;95942.38;30002;983;1877;-65
2022/08/15 02:19:17;;;;;;;;;;;;;;;20.81;55.93;95938.44;30002;983;1859;-63
2022/08/15 02:19:49;;;;;;;;;;;;;;;20.82;55.80;95940.00;30002;983;1872;-66
2022/08/15 02:20:22;;;;;;;;;;;;;;;20.80;55.85;95939.59;30002;982;1881;-66
2022/08/15 02:20:54;;;;;;;;;;;;;;;20.75;57.27;95943.53;30002;982;1877;-67
2022/08/15 02:21:28;;;;;;;;;;;;;;;20.72;56.32;95936.81;30002;982;1881;-67
2022/08/15 02:21:59;;;;;;;;;;;;;;;20.69;56.64;95940.34;30002;982;1877;-67
2022/08/15 02:22:30;;;;;;;;;;;;;;;20.66;56.60;95935.56;30002;982;1881;-67
2022/08/15 02:23:01;;;;;;;;;;;;;;;20.66;56.98;95941.09;30002;983;1854;-66
2022/08/15 02:23:33;;;;;;;;;;;;;;;20.62;56.30;95937.50;30002;983;1876;-66
2022/08/15 02:24:06;;;;;;;;;;;;;;;20.62;56.32;95942.22;30002;983;1876;-67
2022/08/15 02:24:37;;;;;;;;;;;;;;;20.62;56.30;95928.44;30002;983;1881;-68
2022/08/15 02:25:09;;;;;;;;;;;;;;;20.61;56.13;95933.16;30002;983;1876;-67
2022/08/15 02:25:40;;;;;;;;;;;;;;;20.61;56.39;95935.12;30002;983;1881;-67
2022/08/15 02:26:10;;;;;;;;;;;;;;;20.60;56.35;95928.81;30002;983;1876;-66
2022/08/15 02:26:42;;;;;;;;;;;;;;;20.59;56.93;95935.50;30002;983;1881;-66
2022/08/15 02:27:13;;;;;;;;;;;;;;;20.58;57.02;95941.41;30002;982;1877;-67
2022/08/15 02:27:43;;;;;;;;;;;;;;;20.57;57.09;95934.31;30002;982;1881;-66
2022/08/15 02:28:16;;;;;;;;;;;;;;;20.56;56.95;95938.22;30002;982;1855;-65
2022/08/15 02:28:47;;;;;;;;;;;;;;;20.66;57.01;95934.78;30002;982;1877;-66
2022/08/15 02:29:22;;;;;;;;;;;;;;;20.65;56.83;95936.75;30001;982;1877;-67
2022/08/15 02:29:53;;;;;;;;;;;;;;;20.65;56.99;95931.25;30001;982;1881;-69
2022/08/15 02:30:28;;;;;;;;;;;;;;;20.63;56.43;95928.06;30001;964;1895;-68
2022/08/15 02:30:59;;;;;;;;;;;;;;;20.62;56.31;95932.00;30001;983;1881;-68
2022/08/15 02:31:31;;;;;;;;;;;;;;;20.63;56.52;95928.06;30001;983;1876;-67
2022/08/15 02:32:06;;;;;;;;;;;;;;;20.66;56.80;95935.56;30001;983;1881;-66
2022/08/15 02:32:39;;;;;;;;;;;;;;;20.67;56.57;95933.63;30001;983;1876;-67
2022/08/15 02:33:10;;;;;;;;;;;;;;;20.68;56.57;95930.47;30001;983;1881;-56
2022/08/15 02:33:43;;;;;;;;;;;;;;;20.67;56.63;95934.41;30001;959;1879;-67
2022/08/15 02:34:15;;;;;;;;;;;;;;;20.65;56.21;95934.00;30001;983;1876;-66
2022/08/15 02:34:47;;;;;;;;;;;;;;;20.64;57.04;95940.69;30001;982;1877;-66
2022/08/15 02:35:18;;;;;;;;;;;;;;;20.62;57.70;95943.03;30001;982;1881;-66
2022/08/15 02:35:50;;;;;;;;;;;;;;;20.59;56.71;95940.22;30001;982;1877;-67
2022/08/15 02:36:22;;;;;;;;;;;;;;;20.59;56.80;95940.22;30001;982;1881;-67
2022/08/15 02:36:55;;;;;;;;;;;;;;;20.56;57.45;95939.03;30001;982;1877;-67
2022/08/15 02:37:26;;;;;;;;;;;;;;;20.54;57.59;95938.63;30001;982;1881;-67
2022/08/15 02:38:04;;;;;;;;;;;;;;;20.53;57.11;95934.28;30001;983;1876;-67
2022/08/15 02:38:35;;;;;;;;;;;;;;;20.54;57.18;95941.38;30001;983;1859;-66
2022/08/15 02:39:08;;;;;;;;;;;;;;;20.56;57.11;95938.22;30001;983;1872;-65
2022/08/15 02:39:40;;;;;;;;;;;;;;;20.57;57.37;95937.84;30001;983;1881;-66
2022/08/15 02:40:14;;;;;;;;;;;;;;;20.56;56.96;95939.03;30001;983;1876;-55
2022/08/15 02:40:46;;;;;;;;;;;;;;;20.56;57.79;95941.78;30002;961;1819;-67
2022/08/15 02:41:22;;;;;;;;;;;;;;;20.55;57.14;95937.44;30002;983;1776;-56
2022/08/15 02:41:53;;;;;;;;;;;;;;;20.54;57.10;95933.09;30001;983;1881;-67
2022/08/15 02:42:24;;;;;;;;;;;;;;;20.52;56.96;95938.19;30001;982;1877;-67
2022/08/15 02:42:56;;;;;;;;;;;;;;;20.52;56.88;95934.66;30001;982;1881;-66
2022/08/15 02:43:27;;;;;;;;;;;;;;;20.51;57.32;95936.63;30001;982;1877;-67
2022/08/15 02:43:59;;;;;;;;;;;;;;;20.51;57.06;95941.34;30001;982;1859;-67
2022/08/15 02:44:30;;;;;;;;;;;;;;;20.50;57.05;95935.03;30001;982;1872;-67
2022/08/15 02:45:01;;;;;;;;;;;;;;;20.50;57.21;95945.25;30001;983;1880;-67
2022/08/15 02:45:37;;;;;;;;;;;;;;;20.49;57.56;95949.97;30001;983;1876;-67
2022/08/15 02:46:07;;;;;;;;;;;;;;;20.48;58.01;95948.41;30001;983;1859;-66
2022/08/15 02:46:39;;;;;;;;;;;;;;;20.46;59.86;95947.19;30001;983;1872;-66
2022/08/15 02:47:13;;;;;;;;;;;;;;;20.44;59.38;95955.84;30001;983;1881;-67
2022/08/15 02:47:44;;;;;;;;;;;;;;;20.44;58.59;95953.09;30001;983;1876;-67
2022/08/15 02:48:15;;;;;;;;;;;;;;;20.44;58.54;95958.62;30001;983;1881;-66
2022/08/15 02:48:47;;;;;;;;;;;;;;;20.46;58.03;95950.72;30001;983;1876;-55
2022/08/15 02:49:18;;;;;;;;;;;;;;;20.46;59.34;95950.72;30001;983;1881;-67
2022/08/15 02:49:49;;;;;;;;;;;;;;;20.44;58.31;95953.09;30002;982;1824;-66
2022/08/15 02:50:21;;;;;;;;;;;;;;;20.48;57.77;95953.09;30001;982;1881;-69
2022/08/15 02:50:53;;;;;;;;;;;;;;;20.49;58.75;95951.94;30001;982;1877;-67
2022/08/15 02:51:26;;;;;;;;;;;;;;;20.46;58.88;95947.97;30001;982;1859;-67
2022/08/15 02:51:57;;;;;;;;;;;;;;;20.44;58.62;95953.09;30001;982;1872;-66
2022/08/15 02:52:28;;;;;;;;;;;;;;;20.42;58.63;95955.44;30001;983;1880;-68
2022/08/15 02:52:59;;;;;;;;;;;;;;;20.42;58.84;95955.44;30001;983;1876;-67
2022/08/15 02:53:30;;;;;;;;;;;;;;;20.40;58.39;95953.06;30001;983;1859;-67
2022/08/15 02:54:01;;;;;;;;;;;;;;;20.41;58.11;95953.84;30001;983;1872;-67
2022/08/15 02:54:32;;;;;;;;;;;;;;;20.44;58.19;95953.09;30001;983;1880;-69
2022/08/15 02:55:03;;;;;;;;;;;;;;;20.46;58.02;95956.25;30001;983;1876;-62
2022/08/15 02:55:34;;;;;;;;;;;;;;;20.51;58.08;95946.84;30001;983;1881;-67
2022/08/15 02:56:06;;;;;;;;;;;;;;;20.50;58.05;95946.06;30001;983;1876;-67
2022/08/15 02:56:38;;;;;;;;;;;;;;;20.50;57.86;95951.56;30001;983;1881;-67
2022/08/15 02:57:09;;;;;;;;;;;;;;;20.49;57.64;95947.22;30001;983;1877;-67
2022/08/15 02:57:40;;;;;;;;;;;;;;;20.53;57.97;95944.50;30001;982;1859;-67
2022/08/15 02:58:12;;;;;;;;;;;;;;;20.53;57.88;95939.78;30001;982;1872;-56
2022/08/15 02:58:43;;;;;;;;;;;;;;;20.68;57.80;95949.78;30001;982;1881;-67
2022/08/15 02:59:14;;;;;;;;;;;;;;;20.69;57.45;95948.59;30001;982;1877;-68
2022/08/15 02:59:46;;;;;;;;;;;;;;;20.66;57.82;95952.13;30001;983;1880;-67